createdAt,value
2019-01-28T00:00:52.746Z,30.93
2019-01-28T00:03:21.322Z,30.50
2019-01-28T00:05:49.874Z,28.63
2019-01-28T00:08:18.598Z,31.93
2019-01-28T00:10:47.094Z,30.77
2019-01-28T00:13:15.578Z,30.90
2019-01-28T00:15:44.098Z,30.33
2019-01-28T00:18:12.582Z,26.77
2019-01-28T00:20:41.102Z,31.27
2019-01-28T00:23:09.742Z,28.50
2019-01-28T00:25:38.247Z,31.70
2019-01-28T00:28:06.750Z,29.97
2019-01-28T00:30:35.238Z,30.50
2019-01-28T00:33:03.694Z,28.40
2019-01-28T00:35:32.194Z,30.23
2019-01-28T00:38:00.630Z,29.73
2019-01-28T00:40:29.122Z,28.53
2019-01-28T00:42:57.642Z,29.77
2019-01-28T00:45:26.146Z,29.90
2019-01-28T00:47:54.619Z,27.50
2019-01-28T00:50:23.121Z,29.43
2019-01-28T00:52:52.169Z,28.60
2019-01-28T00:55:20.638Z,28.53
2019-01-28T00:57:49.102Z,22.27
2019-01-28T01:00:19.545Z,30.23
2019-01-28T01:02:48.044Z,29.83
2019-01-28T01:05:16.909Z,29.37
2019-01-28T01:07:45.442Z,29.10
2019-01-28T01:10:13.937Z,28.47
2019-01-28T01:12:42.686Z,28.05
2019-01-28T01:15:13.467Z,28.30
2019-01-28T01:17:42.318Z,25.90
2019-01-28T01:20:12.241Z,27.60
2019-01-28T01:22:40.750Z,27.33
2019-01-28T01:25:09.830Z,27.47
2019-01-28T01:27:38.383Z,29.00
2019-01-28T01:30:09.046Z,28.40
2019-01-28T01:32:37.513Z,28.33
2019-01-28T01:35:06.057Z,29.57
2019-01-28T01:37:35.273Z,29.30
2019-01-28T01:40:04.174Z,28.43
2019-01-28T01:42:32.641Z,29.57
2019-01-28T01:45:01.130Z,30.05
2019-01-28T01:47:29.589Z,27.33
2019-01-28T01:49:58.130Z,28.87
2019-01-28T01:52:26.638Z,28.17
2019-01-28T01:54:56.753Z,27.87
2019-01-28T01:57:25.237Z,28.20
2019-01-28T01:59:53.713Z,30.50
2019-01-28T02:02:22.841Z,30.37
2019-01-28T02:04:51.293Z,28.27
2019-01-28T02:07:19.941Z,28.33
2019-01-28T02:09:48.497Z,30.60
2019-01-28T02:12:17.313Z,29.90
2019-01-28T02:14:45.785Z,28.87
2019-01-28T02:17:14.481Z,27.20
2019-01-28T02:19:43.168Z,26.17
2019-01-28T02:22:11.636Z,26.70
2019-01-28T02:24:40.098Z,26.23
2019-01-28T02:27:08.913Z,26.93
2019-01-28T02:29:37.369Z,26.93
2019-01-28T02:32:05.831Z,26.80
2019-01-28T02:34:34.349Z,26.40
2019-01-28T02:37:02.821Z,25.93
2019-01-28T02:39:31.278Z,28.30
2019-01-28T02:41:59.754Z,25.37
2019-01-28T02:44:28.253Z,27.23
2019-01-28T02:46:57.009Z,28.70
2019-01-28T02:49:25.468Z,28.80
2019-01-28T02:51:54.333Z,29.13
2019-01-28T02:54:22.798Z,25.83
2019-01-28T02:56:51.293Z,26.77
2019-01-28T02:59:19.736Z,28.33
2019-01-28T03:01:48.180Z,26.53
2019-01-28T03:04:16.965Z,28.67
2019-01-28T03:06:45.440Z,26.97
2019-01-28T03:09:13.908Z,28.07
2019-01-28T03:11:42.664Z,27.30
2019-01-28T03:14:11.137Z,27.77
2019-01-28T03:16:39.692Z,27.83
2019-01-28T03:19:08.198Z,27.97
2019-01-28T03:21:36.701Z,27.53
2019-01-28T03:24:05.177Z,28.57
2019-01-28T03:26:33.653Z,27.97
2019-01-28T03:29:02.102Z,26.43
2019-01-28T03:31:30.562Z,27.83
2019-01-28T03:33:59.036Z,24.25
2019-01-28T03:36:27.497Z,26.90
2019-01-28T03:38:55.941Z,26.23
2019-01-28T03:41:24.568Z,27.10
2019-01-28T03:43:53.145Z,26.30
2019-01-28T03:46:21.708Z,27.52
2019-01-28T03:48:50.237Z,27.43
2019-01-28T03:51:19.094Z,28.90
2019-01-28T03:53:47.596Z,27.43
2019-01-28T03:56:16.505Z,26.77
2019-01-28T03:58:45.024Z,26.77
2019-01-28T04:01:13.502Z,26.10
2019-01-28T04:03:42.360Z,27.57
2019-01-28T04:06:10.864Z,27.02
2019-01-28T04:08:39.345Z,27.75
2019-01-28T04:11:08.097Z,27.80
2019-01-28T04:13:36.603Z,26.73
2019-01-28T04:16:05.074Z,28.47
2019-01-28T04:18:34.145Z,26.63
2019-01-28T04:21:02.632Z,24.37
2019-01-28T04:23:31.089Z,27.37
2019-01-28T04:25:59.588Z,27.77
2019-01-28T04:28:28.380Z,27.23
2019-01-28T04:30:57.490Z,27.93
2019-01-28T04:33:26.013Z,27.23
2019-01-28T04:35:54.492Z,26.93
2019-01-28T04:38:22.927Z,27.90
2019-01-28T04:40:51.673Z,26.50
2019-01-28T04:43:20.132Z,28.90
2019-01-28T04:45:48.599Z,29.13
2019-01-28T04:48:17.047Z,28.07
2019-01-28T04:50:45.549Z,29.50
2019-01-28T04:53:14.039Z,28.30
2019-01-28T04:55:42.475Z,28.87
2019-01-28T04:58:10.965Z,27.97
2019-01-28T05:00:39.783Z,27.73
2019-01-28T05:03:08.278Z,27.73
2019-01-28T05:05:37.127Z,27.57
2019-01-28T05:08:05.640Z,30.40
2019-01-28T05:10:34.109Z,28.42
2019-01-28T05:13:04.873Z,27.33
2019-01-28T05:15:31.435Z,27.77
2019-01-28T05:17:59.871Z,27.13
2019-01-28T05:20:28.371Z,28.87
2019-01-28T05:22:56.989Z,28.07
2019-01-28T05:25:25.736Z,27.80
2019-01-28T05:27:54.587Z,29.10
2019-01-28T05:30:24.396Z,27.73
2019-01-28T05:32:53.118Z,28.00
2019-01-28T05:35:21.865Z,28.77
2019-01-28T05:37:50.484Z,27.93
2019-01-28T05:40:20.771Z,27.47
2019-01-28T05:42:49.315Z,27.43
2019-01-28T05:45:18.066Z,26.40
2019-01-28T05:47:46.559Z,27.40
2019-01-28T05:50:15.197Z,27.27
2019-01-28T05:52:43.680Z,27.63
2019-01-28T05:55:12.603Z,29.57
2019-01-28T05:57:41.255Z,27.43
2019-01-28T06:00:15.700Z,27.67
2019-01-28T06:02:44.229Z,28.63
2019-01-28T06:05:12.772Z,27.07
2019-01-28T06:07:41.219Z,29.50
2019-01-28T06:10:10.603Z,27.20
2019-01-28T06:12:39.191Z,29.77
2019-01-28T06:15:09.607Z,28.60
2019-01-28T06:17:39.101Z,29.53
2019-01-28T06:20:10.019Z,29.30
2019-01-28T06:22:38.515Z,28.23
2019-01-28T06:25:07.084Z,30.30
2019-01-28T06:27:35.547Z,29.53
2019-01-28T06:30:07.162Z,29.63
2019-01-28T06:32:35.722Z,28.37
2019-01-28T06:35:05.939Z,29.47
2019-01-28T06:37:34.479Z,28.10
2019-01-28T06:40:03.003Z,29.13
2019-01-28T06:42:31.486Z,31.87
2019-01-28T06:44:59.976Z,30.30
2019-01-28T06:47:28.450Z,31.07
2019-01-28T06:49:57.235Z,29.53
2019-01-28T06:52:25.711Z,27.93
2019-01-28T06:54:54.202Z,29.13
2019-01-28T06:57:23.051Z,29.40
2019-01-28T06:59:51.646Z,30.67
2019-01-28T07:02:20.098Z,29.27
2019-01-28T07:04:48.518Z,29.37
2019-01-28T07:07:17.026Z,30.17
2019-01-28T07:09:45.499Z,27.87
2019-01-28T07:12:14.198Z,28.13
2019-01-28T07:14:42.646Z,28.43
2019-01-28T07:17:11.082Z,28.87
2019-01-28T07:19:39.858Z,29.23
2019-01-28T07:22:08.398Z,29.80
2019-01-28T07:24:36.858Z,27.77
2019-01-28T07:27:05.442Z,28.50
2019-01-28T07:29:33.878Z,28.27
2019-01-28T07:32:02.331Z,30.60
2019-01-28T07:34:30.802Z,29.80
2019-01-28T07:36:59.257Z,27.90
2019-01-28T07:39:27.814Z,29.57
2019-01-28T07:41:56.284Z,30.77
2019-01-28T07:44:24.733Z,29.30
2019-01-28T07:46:53.230Z,29.13
2019-01-28T07:49:21.669Z,28.50
2019-01-28T07:51:50.140Z,28.67
2019-01-28T07:54:18.940Z,29.97
2019-01-28T07:56:47.696Z,28.90
2019-01-28T07:59:16.444Z,29.53
2019-01-28T08:01:44.912Z,28.70
2019-01-28T08:04:13.384Z,25.80
2019-01-28T08:06:41.884Z,27.40
2019-01-28T08:09:10.386Z,27.77
2019-01-28T08:11:38.877Z,28.10
2019-01-28T08:14:07.380Z,27.87
2019-01-28T08:16:36.162Z,27.43
2019-01-28T08:19:04.904Z,28.93
2019-01-28T08:21:33.383Z,29.53
2019-01-28T08:24:01.881Z,31.83
2019-01-28T08:26:30.324Z,31.00
2019-01-28T08:28:58.780Z,27.70
2019-01-28T08:31:27.976Z,31.20
2019-01-28T08:33:56.444Z,29.60
2019-01-28T08:36:24.929Z,29.03
2019-01-28T08:38:53.436Z,28.00
2019-01-28T08:41:21.900Z,28.37
2019-01-28T08:43:51.216Z,28.93
2019-01-28T08:46:20.472Z,27.63
2019-01-28T08:48:49.285Z,28.80
2019-01-28T08:51:19.398Z,30.00
2019-01-28T08:53:46.600Z,31.27
2019-01-28T08:56:16.929Z,31.23
2019-01-28T08:58:43.647Z,31.57
2019-01-28T09:01:12.312Z,31.20
2019-01-28T09:03:40.784Z,31.40
2019-01-28T09:06:09.280Z,29.43
2019-01-28T09:08:39.525Z,31.30
2019-01-28T09:11:06.392Z,30.77
2019-01-28T09:13:34.845Z,29.83
2019-01-28T09:16:03.433Z,28.37
2019-01-28T09:18:31.927Z,30.43
2019-01-28T09:21:00.408Z,28.57
2019-01-28T09:23:28.916Z,29.17
2019-01-28T09:25:57.376Z,29.80
2019-01-28T09:28:25.886Z,30.37
2019-01-28T09:30:54.368Z,30.33
2019-01-28T09:33:22.908Z,32.47
2019-01-28T09:35:51.556Z,31.57
2019-01-28T09:38:20.051Z,31.37
2019-01-28T09:40:48.879Z,35.47
2019-01-28T09:43:17.629Z,33.87
2019-01-28T09:45:46.795Z,31.17
2019-01-28T09:48:16.365Z,30.50
2019-01-28T09:50:45.384Z,27.93
2019-01-28T09:53:14.219Z,30.83
2019-01-28T09:55:42.736Z,29.37
2019-01-28T09:58:11.223Z,30.80
2019-01-28T10:00:41.936Z,29.73
2019-01-28T10:03:10.698Z,31.87
2019-01-28T10:05:39.241Z,31.50
2019-01-28T10:08:08.379Z,31.60
2019-01-28T10:10:36.999Z,33.40
2019-01-28T10:13:05.511Z,31.50
2019-01-28T10:15:34.023Z,32.37
2019-01-28T10:18:02.499Z,32.10
2019-01-28T10:20:34.307Z,30.30
2019-01-28T10:23:03.059Z,31.53
2019-01-28T10:25:31.487Z,32.87
2019-01-28T10:28:00.000Z,32.27
2019-01-28T10:30:30.711Z,34.33
2019-01-28T10:32:59.239Z,34.97
2019-01-28T10:35:28.932Z,31.33
2019-01-28T10:37:57.720Z,32.67
2019-01-28T10:40:28.044Z,34.90
2019-01-28T10:42:56.567Z,32.60
2019-01-28T10:45:25.411Z,31.47
2019-01-28T10:47:53.991Z,34.37
2019-01-28T10:50:22.535Z,33.40
2019-01-28T10:52:51.532Z,34.23
2019-01-28T10:55:20.971Z,34.57
2019-01-28T10:57:49.443Z,33.07
2019-01-28T11:00:23.463Z,34.93
2019-01-28T11:02:51.998Z,29.67
2019-01-28T11:05:20.532Z,30.70
2019-01-28T11:07:48.994Z,30.43
2019-01-28T11:11:21.090Z,34.07
2019-01-28T11:13:49.547Z,31.50
2019-01-28T11:16:18.003Z,33.38
2019-01-28T11:18:46.554Z,33.20
2019-01-28T11:21:15.048Z,32.27
2019-01-28T11:23:43.612Z,33.73
2019-01-28T11:26:12.167Z,32.03
2019-01-28T11:28:40.662Z,32.97
2019-01-28T11:31:11.137Z,33.77
2019-01-28T11:33:39.985Z,33.13
2019-01-28T11:36:09.676Z,31.27
2019-01-28T11:38:38.175Z,33.37
2019-01-28T11:41:06.691Z,35.07
2019-01-28T11:43:35.159Z,34.73
2019-01-28T11:46:05.689Z,34.33
2019-01-28T11:48:34.158Z,36.57
2019-01-28T11:51:02.614Z,34.27
2019-01-28T11:56:30.007Z,34.80
2019-01-28T11:58:58.499Z,33.57
2019-01-28T12:01:31.086Z,34.57
2019-01-28T12:03:59.584Z,31.10
2019-01-28T12:06:28.111Z,32.90
2019-01-28T12:08:56.742Z,33.38
2019-01-28T12:11:25.648Z,33.00
2019-01-28T12:13:54.135Z,34.37
2019-01-28T12:16:22.630Z,32.83
2019-01-28T12:18:51.163Z,33.80
2019-01-28T12:21:19.932Z,33.63
2019-01-28T12:23:48.396Z,34.10
2019-01-28T12:26:16.964Z,31.43
2019-01-28T12:28:45.952Z,33.53
2019-01-28T12:31:14.472Z,33.65
2019-01-28T12:33:42.956Z,34.20
2019-01-28T12:36:11.425Z,33.83
2019-01-28T12:38:39.896Z,32.90
2019-01-28T12:41:08.416Z,36.55
2019-01-28T12:43:37.288Z,34.17
2019-01-28T12:46:05.808Z,31.53
2019-01-28T12:48:34.364Z,35.47
2019-01-28T12:51:02.824Z,34.33
2019-01-28T12:53:31.318Z,35.53
2019-01-28T12:55:59.834Z,33.57
2019-01-28T12:58:28.584Z,34.75
2019-01-28T13:01:01.552Z,33.60
2019-01-28T13:03:30.056Z,34.47
2019-01-28T13:05:58.500Z,36.87
2019-01-28T13:08:27.868Z,35.10
2019-01-28T13:10:55.552Z,37.33
2019-01-28T13:13:24.167Z,35.27
2019-01-28T13:15:53.396Z,36.63
2019-01-28T13:18:21.888Z,37.13
2019-01-28T13:20:50.888Z,38.03
2019-01-28T13:23:19.800Z,35.30
2019-01-28T13:25:48.356Z,36.07
2019-01-28T13:28:16.979Z,33.83
2019-01-28T13:30:45.441Z,36.40
2019-01-28T13:33:15.691Z,35.30
2019-01-28T13:35:44.211Z,34.70
2019-01-28T13:38:12.687Z,35.05
2019-01-28T13:40:41.159Z,34.60
2019-01-28T13:43:09.731Z,34.73
2019-01-28T13:45:38.207Z,37.43
2019-01-28T13:48:09.373Z,36.37
2019-01-28T13:50:38.251Z,34.97
2019-01-28T13:53:06.742Z,36.50
2019-01-28T13:55:35.239Z,33.80
2019-01-28T13:58:04.720Z,33.97
2019-01-28T14:00:33.612Z,34.70
2019-01-28T14:03:02.360Z,34.83
2019-01-28T14:05:30.889Z,34.67
2019-01-28T14:07:59.408Z,34.00
2019-01-28T14:10:27.956Z,34.57
2019-01-28T14:12:56.548Z,35.53
2019-01-28T14:15:28.297Z,36.60
2019-01-28T14:17:56.780Z,36.70
2019-01-28T14:21:28.568Z,36.20
2019-01-28T14:23:57.131Z,35.93
2019-01-28T14:26:25.656Z,35.67
2019-01-28T14:28:54.156Z,34.77
2019-01-28T14:31:42.337Z,34.67
2019-01-28T14:34:10.853Z,34.50
2019-01-28T14:36:39.611Z,35.20
2019-01-28T14:39:13.732Z,36.43
2019-01-28T14:41:45.476Z,34.23
2019-01-28T14:44:13.967Z,34.43
2019-01-28T14:46:42.419Z,36.63
2019-01-28T14:49:10.943Z,37.67
2019-01-28T14:51:39.443Z,36.77
2019-01-28T14:54:08.367Z,36.83
2019-01-28T14:56:36.963Z,39.03
2019-01-28T14:59:05.519Z,37.57
2019-01-28T15:01:34.483Z,35.63
2019-01-28T15:04:03.004Z,36.80
2019-01-28T15:06:31.624Z,37.90
2019-01-28T15:09:00.184Z,35.10
2019-01-28T15:11:28.716Z,32.77
2019-01-28T15:13:57.228Z,34.10
2019-01-28T15:16:25.756Z,35.23
2019-01-28T15:18:54.214Z,35.53
2019-01-28T15:21:22.708Z,34.97
2019-01-28T15:23:51.181Z,36.87
2019-01-28T15:26:19.805Z,37.53
2019-01-28T15:28:48.337Z,36.33
2019-01-28T15:31:17.152Z,38.37
2019-01-28T15:33:45.659Z,36.60
2019-01-28T15:36:14.324Z,36.60
2019-01-28T15:38:42.784Z,37.20
2019-01-28T15:41:11.304Z,36.83
2019-01-28T15:43:39.801Z,36.40
2019-01-28T15:46:08.319Z,38.80
2019-01-28T15:48:36.780Z,37.17
2019-01-28T15:51:05.419Z,38.63
2019-01-28T15:53:34.090Z,39.83
2019-01-28T15:56:02.780Z,41.57
2019-01-28T15:58:31.259Z,37.97
2019-01-28T16:01:00.354Z,39.40
2019-01-28T16:03:28.816Z,38.23
2019-01-28T16:05:57.326Z,38.40
2019-01-28T16:08:25.790Z,37.47
2019-01-28T16:10:54.263Z,38.37
2019-01-28T16:13:22.715Z,39.47
2019-01-28T16:15:52.251Z,36.93
2019-01-28T16:18:20.703Z,37.67
2019-01-28T16:20:49.175Z,33.77
2019-01-28T16:23:18.022Z,33.23
2019-01-28T16:25:46.494Z,33.97
2019-01-28T16:28:15.294Z,34.80
2019-01-28T16:30:44.054Z,34.90
2019-01-28T16:33:12.555Z,34.43
2019-01-28T16:35:41.030Z,35.00
2019-01-28T16:38:09.488Z,37.23
2019-01-28T16:40:38.394Z,38.37
2019-01-28T16:43:06.937Z,37.37
2019-01-28T16:45:35.466Z,37.40
2019-01-28T16:48:05.878Z,37.13
2019-01-28T16:50:34.410Z,38.07
2019-01-28T16:53:02.878Z,38.57
2019-01-28T16:55:31.389Z,36.17
2019-01-28T16:57:59.951Z,34.80
2019-01-28T17:00:30.406Z,34.73
2019-01-28T17:02:58.926Z,33.00
2019-01-28T17:05:27.541Z,37.17
2019-01-28T17:07:56.022Z,36.67
2019-01-28T17:10:24.676Z,37.67
2019-01-28T17:12:53.110Z,37.63
2019-01-28T17:15:22.023Z,37.87
2019-01-28T17:17:50.527Z,39.57
2019-01-28T17:20:21.103Z,39.17
2019-01-28T17:22:49.614Z,39.33
2019-01-28T17:25:21.567Z,41.10
2019-01-28T17:27:50.219Z,43.67
2019-01-28T17:30:24.951Z,39.60
2019-01-28T17:32:53.790Z,43.90
2019-01-28T17:35:22.099Z,44.03
2019-01-28T17:37:50.881Z,45.00
2019-01-28T17:40:19.801Z,43.77
2019-01-28T17:42:48.607Z,43.30
2019-01-28T17:45:18.627Z,45.90
2019-01-28T17:47:47.227Z,46.13
2019-01-28T17:50:15.807Z,46.73
2019-01-28T17:52:44.322Z,46.07
2019-01-28T17:55:13.123Z,43.17
2019-01-28T17:57:41.667Z,43.63
2019-01-28T18:00:13.699Z,44.33
2019-01-28T18:02:42.355Z,46.30
2019-01-28T18:05:10.995Z,49.07
2019-01-28T18:07:39.731Z,48.10
2019-01-28T18:10:10.243Z,49.07
2019-01-28T18:12:38.727Z,46.50
2019-01-28T18:15:09.903Z,47.30
2019-01-28T18:17:38.563Z,48.17
2019-01-28T18:20:09.886Z,49.00
2019-01-28T18:22:43.687Z,46.83
2019-01-28T18:25:13.863Z,48.57
2019-01-28T18:27:42.631Z,51.90
2019-01-28T18:30:16.091Z,49.80
2019-01-28T18:32:44.584Z,51.00
2019-01-28T18:35:13.158Z,52.47
2019-01-28T18:37:41.666Z,52.67
2019-01-28T18:40:11.074Z,51.63
2019-01-28T18:42:39.786Z,51.43
2019-01-28T18:45:09.419Z,51.03
2019-01-28T18:47:37.924Z,52.53
2019-01-28T18:50:07.135Z,49.90
2019-01-28T18:52:35.911Z,51.50
2019-01-28T18:55:06.087Z,51.47
2019-01-28T18:57:34.608Z,50.37
2019-01-28T19:00:03.226Z,51.93
2019-01-28T19:02:31.804Z,52.50
2019-01-28T19:05:00.468Z,53.47
2019-01-28T19:07:34.276Z,48.80
2019-01-28T19:10:10.000Z,51.03
2019-01-28T19:14:48.852Z,47.80
2019-01-28T19:18:23.952Z,48.97
2019-01-28T19:20:57.916Z,49.57
2019-01-28T19:23:26.572Z,52.67
2019-01-28T19:25:55.721Z,51.70
2019-01-28T19:28:24.468Z,51.70
2019-01-28T19:30:53.192Z,52.27
2019-01-28T19:33:21.721Z,51.07
2019-01-28T19:35:50.478Z,51.07
2019-01-28T19:38:19.116Z,48.60
2019-01-28T19:40:47.613Z,52.20
2019-01-28T19:43:16.109Z,50.60
2019-01-28T19:45:44.648Z,50.63
2019-01-28T19:49:16.040Z,49.57
2019-01-28T19:51:45.228Z,48.47
2019-01-28T19:54:13.840Z,45.57
2019-01-28T19:56:42.327Z,51.17
2019-01-28T19:59:10.968Z,50.70
2019-01-28T20:01:39.489Z,49.17
2019-01-28T20:04:08.005Z,51.73
2019-01-28T20:06:36.561Z,50.57
2019-01-28T20:09:07.748Z,51.60
2019-01-28T20:11:36.311Z,51.43
2019-01-28T20:14:04.852Z,52.40
2019-01-28T20:16:33.368Z,52.43
2019-01-28T20:19:01.868Z,52.33
2019-01-28T20:21:30.386Z,50.90
2019-01-28T20:23:58.982Z,52.40
2019-01-28T20:26:27.531Z,53.87
2019-01-28T20:28:56.082Z,56.00
2019-01-28T20:31:24.572Z,53.30
2019-01-28T20:33:53.026Z,55.53
2019-01-28T20:36:21.510Z,52.30
2019-01-28T20:38:50.039Z,51.50
2019-01-28T20:41:18.651Z,51.18
2019-01-28T20:43:47.287Z,53.33
2019-01-28T20:46:15.827Z,55.50
2019-01-28T20:48:44.351Z,55.33
2019-01-28T20:51:12.931Z,53.77
2019-01-28T20:53:41.536Z,57.73
2019-01-28T20:56:10.468Z,55.57
2019-01-28T20:58:39.010Z,54.80
2019-01-28T21:01:07.508Z,55.80
2019-01-28T21:03:36.330Z,56.90
2019-01-28T21:06:05.159Z,55.63
2019-01-28T21:08:33.743Z,58.03
2019-01-28T21:11:02.251Z,57.43
2019-01-28T21:13:30.794Z,54.83
2019-01-28T21:15:59.316Z,57.80
2019-01-28T21:18:27.891Z,57.73
2019-01-28T21:20:57.007Z,57.53
2019-01-28T21:23:25.487Z,60.00
2019-01-28T21:25:53.968Z,58.67
2019-01-28T21:28:22.499Z,56.20
2019-01-28T21:30:51.539Z,57.30
2019-01-28T21:33:20.287Z,54.43
2019-01-28T21:35:58.037Z,53.90
2019-01-28T21:38:30.420Z,55.40
2019-01-28T21:40:58.955Z,54.50
2019-01-28T21:43:27.843Z,53.63
2019-01-28T21:45:56.335Z,56.37
2019-01-28T21:48:24.979Z,53.70
2019-01-28T21:50:53.647Z,51.83
2019-01-28T21:53:22.143Z,53.87
2019-01-28T21:55:50.634Z,55.07
2019-01-28T21:58:19.208Z,55.17
2019-01-28T22:00:47.693Z,53.30
2019-01-28T22:03:16.536Z,53.20
2019-01-28T22:05:45.105Z,57.57
2019-01-28T22:08:13.848Z,57.47
2019-01-28T22:10:42.372Z,58.10
2019-01-28T22:13:10.924Z,58.30
2019-01-28T22:15:39.437Z,55.90
2019-01-28T22:18:07.990Z,55.67
2019-01-28T22:20:36.513Z,56.50
2019-01-28T22:23:05.406Z,55.70
2019-01-28T22:25:33.964Z,56.23
2019-01-28T22:28:02.420Z,57.23
2019-01-28T22:30:31.031Z,58.30
2019-01-28T22:32:59.509Z,57.60
2019-01-28T22:35:27.995Z,58.00
2019-01-28T22:37:56.605Z,62.20
2019-01-28T22:40:25.097Z,63.90
2019-01-28T22:42:53.608Z,61.03
2019-01-28T22:45:22.195Z,60.13
2019-01-28T22:47:50.673Z,62.00
2019-01-28T22:50:19.251Z,62.55
2019-01-28T22:52:47.840Z,62.20
2019-01-28T22:55:16.636Z,61.70
2019-01-28T22:57:45.111Z,61.57
2019-01-28T23:00:20.087Z,56.57
2019-01-28T23:02:48.623Z,59.03
2019-01-28T23:05:17.323Z,58.10
2019-01-28T23:07:45.863Z,57.93
2019-01-28T23:10:14.510Z,58.40
2019-01-28T23:12:42.987Z,57.10
2019-01-28T23:15:11.531Z,58.17
2019-01-28T23:17:40.049Z,61.43
2019-01-28T23:20:08.653Z,57.93
2019-01-28T23:22:37.311Z,59.50
2019-01-28T23:25:05.879Z,57.30
2019-01-28T23:27:34.339Z,59.23
2019-01-28T23:30:02.929Z,58.93
2019-01-28T23:32:31.447Z,57.10
2019-01-28T23:35:00.271Z,55.90
2019-01-28T23:37:28.747Z,56.33
2019-01-28T23:39:57.287Z,56.30
2019-01-28T23:42:27.171Z,56.13
2019-01-28T23:44:55.655Z,58.67
2019-01-28T23:47:24.184Z,58.47
2019-01-28T23:49:52.714Z,57.90
2019-01-28T23:52:25.064Z,58.70
2019-01-28T23:54:49.823Z,58.67
2019-01-28T23:57:18.302Z,60.97
2019-01-28T23:59:46.767Z,58.07
